Toronto Express — ZCET5 — position and weather

sailwx.info

Track history (hours):
 
Tides and Currents Weather Stations Pressure Air Temp Water Temp Dewpoint Dewpoint Depression Visibility Wind Speed Wind Dir Waves Ship Positions

Toronto Express

Last reported at 2017-Dec-09 07:59 UTC. Time now 2017-Dec-13 20:49 UTC.
Position N 50°56' W 057°50'.

Length 294 m; draft 10.9 m.

Type: Cargo ship. MMSI: 310749000.

Date/timePositionNaut miles runAvg speedWind from/ knotsBaromVisibWave heightAir tempDewpointWater temp
2017-Dec-09 07:59N 50°56' W 057°50'611.9
2017-Dec-09 07:30N 51°00' W 057°44'612.1
2017-Dec-09 07:00N 51°04' W 057°37'  
2017-Dec-03 15:55N 54°12' E 007°32'614.3
2017-Dec-03 15:30N 54°09' E 007°41'815.1
2017-Dec-03 15:00N 54°05' E 007°52'814.8
2017-Dec-03 14:30N 54°02' E 008°03'715.2
2017-Dec-03 14:00N 54°00' E 008°16'918.4
2017-Dec-03 13:30N 53°58' E 008°31'816.8
2017-Dec-03 13:00N 53°53' E 008°42'612.2
2017-Dec-03 12:30N 53°50' E 008°51'713.1
2017-Dec-03 12:00N 53°52' E 009°02'611.3
2017-Dec-03 11:30N 53°53' E 009°12'510.3
2017-Dec-03 11:01N 53°51' E 009°20'611.3
2017-Dec-03 10:30N 53°46' E 009°24'5 9.6
2017-Dec-03 10:00N 53°42' E 009°29'510.3
2017-Dec-03 09:31N 53°38' E 009°32'612.2
2017-Dec-03 09:01N 53°34' E 009°41'611.5
2017-Dec-03 08:30N 53°33' E 009°50'4 7.9
2017-Dec-03 08:00N 53°31' E 009°56'1 2.4
2017-Dec-03 07:29N 53°30' E 009°56'0 0.0
2017-Dec-03 06:59N 53°30' E 009°56'0 0.0
2017-Dec-03 06:29N 53°30' E 009°56'0 0.0
2017-Dec-03 05:59N 53°30' E 009°56'0 0.0
2017-Dec-03 05:29N 53°30' E 009°56'0 0.0
2017-Dec-03 04:59N 53°30' E 009°56'0 0.0
2017-Dec-03 04:29N 53°30' E 009°56'0 0.0
2017-Dec-03 03:59N 53°30' E 009°56'0 0.0
2017-Dec-03 03:29N 53°30' E 009°56'0 0.0
2017-Dec-03 02:59N 53°30' E 009°56'0 0.0
2017-Dec-03 02:29N 53°30' E 009°56'0 0.0
2017-Dec-03 01:59N 53°30' E 009°56'0 0.0
2017-Dec-03 01:29N 53°30' E 009°56'0 0.0
2017-Dec-03 00:59N 53°30' E 009°56'0 0.0
2017-Dec-03 00:29N 53°30' E 009°56'0 0.0
2017-Dec-02 23:59N 53°30' E 009°56'0 0.0
2017-Dec-02 23:29N 53°30' E 009°56'0 0.0
2017-Dec-02 22:59N 53°30' E 009°56'0 0.0
2017-Dec-02 22:29N 53°30' E 009°56'0 0.0
2017-Dec-02 21:59N 53°30' E 009°56'0 0.0
2017-Dec-02 21:29N 53°30' E 009°56'0 0.0
2017-Dec-02 20:59N 53°30' E 009°56'0 0.0
2017-Dec-02 20:29N 53°30' E 009°56'0 0.0
2017-Dec-02 19:59N 53°30' E 009°56'0 0.0
2017-Dec-02 19:29N 53°30' E 009°56'0 0.0
2017-Dec-02 18:59N 53°30' E 009°56'0 0.0
2017-Dec-02 18:29N 53°30' E 009°56'0 0.0
2017-Dec-02 17:59N 53°30' E 009°56'0 0.0
2017-Dec-02 17:29N 53°30' E 009°56'0 0.0
2017-Dec-02 16:56N 53°30' E 009°56'0 0.1
2017-Dec-02 16:29N 53°30' E 009°56'0 0.0
2017-Dec-02 15:59N 53°30' E 009°56'0 0.0
2017-Dec-02 15:29N 53°30' E 009°56'0 0.0
2017-Dec-02 14:59N 53°30' E 009°56'0 0.0
2017-Dec-02 14:29N 53°30' E 009°56'0 0.0
2017-Dec-02 13:59N 53°30' E 009°56'0 0.0
2017-Dec-02 13:29N 53°30' E 009°56'0 0.0
2017-Dec-02 12:59N 53°30' E 009°56'0 0.0
2017-Dec-02 12:29N 53°30' E 009°56'0 0.0
2017-Dec-02 11:59N 53°30' E 009°56'0 0.0
2017-Dec-02 11:29N 53°30' E 009°56'0 0.0
2017-Dec-02 10:59N 53°30' E 009°56'0 0.0
2017-Dec-02 10:29N 53°30' E 009°56'0 0.0
2017-Dec-02 09:59N 53°30' E 009°56'0 0.0
2017-Dec-02 09:29N 53°30' E 009°56'0 0.0
2017-Dec-02 09:01N 53°30' E 009°56'1 2.1
2017-Dec-02 08:31N 53°31' E 009°56'3 5.3
2017-Dec-02 08:01N 53°33' E 009°53'5 9.2
2017-Dec-02 07:31N 53°34' E 009°45'611.3
2017-Dec-02 07:01N 53°36' E 009°36'611.2
2017-Dec-02 06:30N 53°40' E 009°31'612.6
2017-Dec-02 06:00N 53°45' E 009°24'612.7
2017-Dec-02 05:30N 53°51' E 009°19'713.1
2017-Dec-02 05:00N 53°53' E 009°09'611.5
2017-Dec-02 04:30N 53°51' E 008°59'714.0
2017-Dec-02 04:00N 53°50' E 008°48'5 9.9
2017-Dec-02 03:30N 53°54' E 008°42'612.1
2017-Dec-02 03:00N 53°58' E 008°34'714.8
2017-Dec-02 02:30N 53°59' E 008°22'714.3
2017-Dec-02 02:00N 53°60' E 008°10'712.9
2017-Dec-02 01:30N 54°02' E 007°59'4 8.8
2017-Dec-02 01:00N 54°06' E 007°57'1 1.3
2017-Dec-02 00:30N 54°07' E 007°58'1 1.2
2017-Dec-02 00:00N 54°07' E 007°59'1 1.1
2017-Dec-01 23:30N 54°07' E 008°00'0 0.9
2017-Dec-01 23:00N 54°07' E 008°01'0 0.6
2017-Dec-01 22:30N 54°07' E 008°02'0 0.4
2017-Dec-01 22:00N 54°07' E 008°02'0 0.3
2017-Dec-01 21:30N 54°07' E 008°02'0 0.6
2017-Dec-01 21:00N 54°07' E 008°02'2 3.8
2017-Dec-01 20:29N 54°06' E 007°60'911.9
2017-Dec-01 19:44N 53°59' E 007°49'417.8
2017-Dec-01 19:30N 53°57' E 007°43'79 8.9
2017-Dec-01 10:36N 53°36' E 005°33'1 9.0
2017-Dec-01 10:30N 53°36' E 005°32'5 9.1
2017-Dec-01 10:00N 53°34' E 005°25'5 9.3
2017-Dec-01 09:30N 53°33' E 005°17'5 9.2
2017-Dec-01 09:00N 53°31' E 005°10'4 9.0
2017-Dec-01 08:30N 53°30' E 005°03'5 9.4
2017-Dec-01 08:00N 53°28' E 004°56'4 9.1
2017-Dec-01 07:30N 53°26' E 004°49'5 9.3
2017-Dec-01 07:00N 53°23' E 004°43'5 9.8
2017-Dec-01 06:30N 53°19' E 004°39'6 9.6
2017-Dec-01 05:53N 53°14' E 004°34'4 9.7
2017-Dec-01 05:30N 53°10' E 004°31'5 9.5
2017-Dec-01 05:00N 53°06' E 004°27'5 9.4
2017-Dec-01 04:30N 53°02' E 004°23'5 9.4
2017-Dec-01 04:00N 52°58' E 004°19'5 9.8
2017-Dec-01 03:30N 52°54' E 004°16'5 9.8
2017-Dec-01 03:00N 52°49' E 004°13'5 9.6
2017-Dec-01 02:30N 52°45' E 004°08'5 9.7
2017-Dec-01 02:00N 52°42' E 004°02'5 9.7
2017-Dec-01 01:30N 52°38' E 003°57'5 9.6
2017-Dec-01 01:00N 52°35' E 003°52'5 9.9
2017-Dec-01 00:30N 52°31' E 003°46'5 9.7
2017-Nov-30 23:59N 52°28' E 003°40'1810.2
2017-Nov-30 22:16N 52°12' E 003°28'516.9
2017-Nov-30 22:00N 52°07' E 003°26'812.2
2017-Nov-30 21:22N 51°60' E 003°23'617.2
2017-Nov-30 20:59N 51°53' E 003°21'815.5
2017-Nov-30 20:29N 51°46' E 003°16'4 8.5
2017-Nov-30 20:00N 51°42' E 003°14'715.1
2017-Nov-30 19:31N 51°35' E 003°11'917.9
2017-Nov-30 19:01N 51°28' E 003°02'611.9
2017-Nov-30 18:31N 51°24' E 003°08'1019.6
2017-Nov-30 18:01N 51°25' E 003°24'815.0
2017-Nov-30 17:30N 51°26' E 003°36'4 8.1
2017-Nov-30 17:01N 51°25' E 003°42'714.3
2017-Nov-30 16:30N 51°21' E 003°52'815.3
2017-Nov-30 16:00N 51°26' E 004°01'612.9
2017-Nov-30 15:31N 51°23' E 004°10'510.5
2017-Nov-30 15:00N 51°20' E 004°16'3 5.0
2017-Nov-30 14:29N 51°17' E 004°16'0 0.0
2017-Nov-30 13:59N 51°17' E 004°16'0 0.0
2017-Nov-30 13:29N 51°17' E 004°16'0 0.0
2017-Nov-30 12:56N 51°17' E 004°16'0 0.0
2017-Nov-30 12:29N 51°17' E 004°16'0 0.0
2017-Nov-30 11:59N 51°17' E 004°16'0 0.0
2017-Nov-30 11:29N 51°17' E 004°16'0 0.0
2017-Nov-30 10:59N 51°17' E 004°16'0 0.0
2017-Nov-30 10:29N 51°17' E 004°16'0 0.0
2017-Nov-30 10:01N 51°17' E 004°16'0 0.0
2017-Nov-30 09:30N 51°17' E 004°16'0 0.0
2017-Nov-30 09:01N 51°17' E 004°16'0 0.0
2017-Nov-30 08:31N 51°17' E 004°16'0 0.0
2017-Nov-30 08:01N 51°17' E 004°16'0 0.0
2017-Nov-30 07:30N 51°17' E 004°16'0 0.0
2017-Nov-30 07:00N 51°17' E 004°16'0 0.0
2017-Nov-30 06:30N 51°17' E 004°16'0 0.0
2017-Nov-30 06:01N 51°17' E 004°16'0 0.0
2017-Nov-30 05:30N 51°17' E 004°16'0 0.0
2017-Nov-30 05:01N 51°17' E 004°16'0 0.0
2017-Nov-30 04:30N 51°17' E 004°16'0 0.0
2017-Nov-30 04:01N 51°17' E 004°16'0 0.0
2017-Nov-30 03:31N 51°17' E 004°16'0 0.0
2017-Nov-30 03:01N 51°17' E 004°16'0 0.0
2017-Nov-30 02:31N 51°17' E 004°16'0 0.0
2017-Nov-30 02:00N 51°17' E 004°16'0 0.0
2017-Nov-30 01:31N 51°17' E 004°16'0 0.0
2017-Nov-30 01:01N 51°17' E 004°16'0 0.0
2017-Nov-30 00:30N 51°17' E 004°16'0 0.0
2017-Nov-30 00:00N 51°17' E 004°16'0 0.0
2017-Nov-29 23:31N 51°17' E 004°16'0 0.0
2017-Nov-29 23:00N 51°17' E 004°16'0 0.0
2017-Nov-29 22:31N 51°17' E 004°16'0 0.0
2017-Nov-29 22:01N 51°17' E 004°16'0 0.0
2017-Nov-29 21:30N 51°17' E 004°16'0 0.0
2017-Nov-29 21:00N 51°17' E 004°16'0 0.0
2017-Nov-29 20:31N 51°17' E 004°16'1 1.4
2017-Nov-29 20:01N 51°18' E 004°16'2 3.7
2017-Nov-29 19:31N 51°20' E 004°16'4 7.3
2017-Nov-29 19:00N 51°23' E 004°13'612.8
2017-Nov-29 18:31N 51°23' E 004°03'4 7.1
2017-Nov-29 18:01N 51°23' E 003°57'816.1
2017-Nov-29 17:30N 51°22' E 003°44'713.6
2017-Nov-29 17:00N 51°25' E 003°34'714.4
2017-Nov-29 16:30N 51°24' E 003°23'816.0
2017-Nov-29 16:01N 51°24' E 003°10'611.8
2017-Nov-29 15:30N 51°25' E 003°01'713.4
2017-Nov-29 15:00N 51°25' E 002°50'611.9
2017-Nov-29 14:30N 51°23' E 002°41'713.9
2017-Nov-29 14:00N 51°22' E 002°30'5 9.4
2017-Nov-29 13:30N 51°20' E 002°23'510.0
2017-Nov-29 13:00N 51°17' E 002°17'510.4
2017-Nov-29 12:30N 51°14' E 002°10'510.4
2017-Nov-29 12:00N 51°12' E 002°02'611.1
2017-Nov-29 11:31N 51°10' E 001°55'714.4
2017-Nov-29 11:00N 51°05' E 001°46'714.7
2017-Nov-29 10:30N 51°00' E 001°37'611.3
2017-Nov-29 10:00N 50°57' E 001°30'713.2
2017-Nov-29 09:30N 50°50' E 001°26'813.6
2017-Nov-29 08:53N 50°42' E 001°22'513.7
2017-Nov-29 08:30N 50°39' E 001°17'  
Track history (hours):
 
Tides and Currents Weather Stations Pressure Air Temp Water Temp Dewpoint Dewpoint Depression Visibility Wind Speed Wind Dir Waves Ship Positions

Toronto Express

Last reported at 2017-Dec-09 07:59 UTC. Time now 2017-Dec-13 20:49 UTC.
Position N 50°56' W 057°50'.

Length 294 m; draft 10.9 m.

Type: Cargo ship. MMSI: 310749000.

Date/timePositionNaut miles runAvg speedWind from/ knotsBaromVisibWave heightAir tempDewpointWater temp
2017-Dec-09 07:59N 50°56' W 057°50'611.9
2017-Dec-09 07:30N 51°00' W 057°44'612.1
2017-Dec-09 07:00N 51°04' W 057°37'  
2017-Dec-03 15:55N 54°12' E 007°32'614.3
2017-Dec-03 15:30N 54°09' E 007°41'815.1
2017-Dec-03 15:00N 54°05' E 007°52'814.8
2017-Dec-03 14:30N 54°02' E 008°03'715.2
2017-Dec-03 14:00N 54°00' E 008°16'918.4
2017-Dec-03 13:30N 53°58' E 008°31'816.8
2017-Dec-03 13:00N 53°53' E 008°42'612.2
2017-Dec-03 12:30N 53°50' E 008°51'713.1
2017-Dec-03 12:00N 53°52' E 009°02'611.3
2017-Dec-03 11:30N 53°53' E 009°12'510.3
2017-Dec-03 11:01N 53°51' E 009°20'611.3
2017-Dec-03 10:30N 53°46' E 009°24'5 9.6
2017-Dec-03 10:00N 53°42' E 009°29'510.3
2017-Dec-03 09:31N 53°38' E 009°32'612.2
2017-Dec-03 09:01N 53°34' E 009°41'611.5
2017-Dec-03 08:30N 53°33' E 009°50'4 7.9
2017-Dec-03 08:00N 53°31' E 009°56'1 2.4
2017-Dec-03 07:29N 53°30' E 009°56'0 0.0
2017-Dec-03 06:59N 53°30' E 009°56'0 0.0
2017-Dec-03 06:29N 53°30' E 009°56'0 0.0
2017-Dec-03 05:59N 53°30' E 009°56'0 0.0
2017-Dec-03 05:29N 53°30' E 009°56'0 0.0
2017-Dec-03 04:59N 53°30' E 009°56'0 0.0
2017-Dec-03 04:29N 53°30' E 009°56'0 0.0
2017-Dec-03 03:59N 53°30' E 009°56'0 0.0
2017-Dec-03 03:29N 53°30' E 009°56'0 0.0
2017-Dec-03 02:59N 53°30' E 009°56'0 0.0
2017-Dec-03 02:29N 53°30' E 009°56'0 0.0
2017-Dec-03 01:59N 53°30' E 009°56'0 0.0
2017-Dec-03 01:29N 53°30' E 009°56'0 0.0
2017-Dec-03 00:59N 53°30' E 009°56'0 0.0
2017-Dec-03 00:29N 53°30' E 009°56'0 0.0
2017-Dec-02 23:59N 53°30' E 009°56'0 0.0
2017-Dec-02 23:29N 53°30' E 009°56'0 0.0
2017-Dec-02 22:59N 53°30' E 009°56'0 0.0
2017-Dec-02 22:29N 53°30' E 009°56'0 0.0
2017-Dec-02 21:59N 53°30' E 009°56'0 0.0
2017-Dec-02 21:29N 53°30' E 009°56'0 0.0
2017-Dec-02 20:59N 53°30' E 009°56'0 0.0
2017-Dec-02 20:29N 53°30' E 009°56'0 0.0
2017-Dec-02 19:59N 53°30' E 009°56'0 0.0
2017-Dec-02 19:29N 53°30' E 009°56'0 0.0
2017-Dec-02 18:59N 53°30' E 009°56'0 0.0
2017-Dec-02 18:29N 53°30' E 009°56'0 0.0
2017-Dec-02 17:59N 53°30' E 009°56'0 0.0
2017-Dec-02 17:29N 53°30' E 009°56'0 0.0
2017-Dec-02 16:56N 53°30' E 009°56'0 0.1
2017-Dec-02 16:29N 53°30' E 009°56'0 0.0
2017-Dec-02 15:59N 53°30' E 009°56'0 0.0
2017-Dec-02 15:29N 53°30' E 009°56'0 0.0
2017-Dec-02 14:59N 53°30' E 009°56'0 0.0
2017-Dec-02 14:29N 53°30' E 009°56'0 0.0
2017-Dec-02 13:59N 53°30' E 009°56'0 0.0
2017-Dec-02 13:29N 53°30' E 009°56'0 0.0
2017-Dec-02 12:59N 53°30' E 009°56'0 0.0
2017-Dec-02 12:29N 53°30' E 009°56'0 0.0
2017-Dec-02 11:59N 53°30' E 009°56'0 0.0
2017-Dec-02 11:29N 53°30' E 009°56'0 0.0
2017-Dec-02 10:59N 53°30' E 009°56'0 0.0
2017-Dec-02 10:29N 53°30' E 009°56'0 0.0
2017-Dec-02 09:59N 53°30' E 009°56'0 0.0
2017-Dec-02 09:29N 53°30' E 009°56'0 0.0
2017-Dec-02 09:01N 53°30' E 009°56'1 2.1
2017-Dec-02 08:31N 53°31' E 009°56'3 5.3
2017-Dec-02 08:01N 53°33' E 009°53'5 9.2
2017-Dec-02 07:31N 53°34' E 009°45'611.3
2017-Dec-02 07:01N 53°36' E 009°36'611.2
2017-Dec-02 06:30N 53°40' E 009°31'612.6
2017-Dec-02 06:00N 53°45' E 009°24'612.7
2017-Dec-02 05:30N 53°51' E 009°19'713.1
2017-Dec-02 05:00N 53°53' E 009°09'611.5
2017-Dec-02 04:30N 53°51' E 008°59'714.0
2017-Dec-02 04:00N 53°50' E 008°48'5 9.9
2017-Dec-02 03:30N 53°54' E 008°42'612.1
2017-Dec-02 03:00N 53°58' E 008°34'714.8
2017-Dec-02 02:30N 53°59' E 008°22'714.3
2017-Dec-02 02:00N 53°60' E 008°10'712.9
2017-Dec-02 01:30N 54°02' E 007°59'4 8.8
2017-Dec-02 01:00N 54°06' E 007°57'1 1.3
2017-Dec-02 00:30N 54°07' E 007°58'1 1.2
2017-Dec-02 00:00N 54°07' E 007°59'1 1.1
2017-Dec-01 23:30N 54°07' E 008°00'0 0.9
2017-Dec-01 23:00N 54°07' E 008°01'0 0.6
2017-Dec-01 22:30N 54°07' E 008°02'0 0.4
2017-Dec-01 22:00N 54°07' E 008°02'0 0.3
2017-Dec-01 21:30N 54°07' E 008°02'0 0.6
2017-Dec-01 21:00N 54°07' E 008°02'2 3.8
2017-Dec-01 20:29N 54°06' E 007°60'911.9
2017-Dec-01 19:44N 53°59' E 007°49'417.8
2017-Dec-01 19:30N 53°57' E 007°43'79 8.9
2017-Dec-01 10:36N 53°36' E 005°33'1 9.0
2017-Dec-01 10:30N 53°36' E 005°32'5 9.1
2017-Dec-01 10:00N 53°34' E 005°25'5 9.3
2017-Dec-01 09:30N 53°33' E 005°17'5 9.2
2017-Dec-01 09:00N 53°31' E 005°10'4 9.0
2017-Dec-01 08:30N 53°30' E 005°03'5 9.4
2017-Dec-01 08:00N 53°28' E 004°56'4 9.1
2017-Dec-01 07:30N 53°26' E 004°49'5 9.3
2017-Dec-01 07:00N 53°23' E 004°43'5 9.8
2017-Dec-01 06:30N 53°19' E 004°39'6 9.6
2017-Dec-01 05:53N 53°14' E 004°34'4 9.7
2017-Dec-01 05:30N 53°10' E 004°31'5 9.5
2017-Dec-01 05:00N 53°06' E 004°27'5 9.4
2017-Dec-01 04:30N 53°02' E 004°23'5 9.4
2017-Dec-01 04:00N 52°58' E 004°19'5 9.8
2017-Dec-01 03:30N 52°54' E 004°16'5 9.8
2017-Dec-01 03:00N 52°49' E 004°13'5 9.6
2017-Dec-01 02:30N 52°45' E 004°08'5 9.7
2017-Dec-01 02:00N 52°42' E 004°02'5 9.7
2017-Dec-01 01:30N 52°38' E 003°57'5 9.6
2017-Dec-01 01:00N 52°35' E 003°52'5 9.9
2017-Dec-01 00:30N 52°31' E 003°46'5 9.7
2017-Nov-30 23:59N 52°28' E 003°40'1810.2
2017-Nov-30 22:16N 52°12' E 003°28'516.9
2017-Nov-30 22:00N 52°07' E 003°26'812.2
2017-Nov-30 21:22N 51°60' E 003°23'617.2
2017-Nov-30 20:59N 51°53' E 003°21'815.5
2017-Nov-30 20:29N 51°46' E 003°16'4 8.5
2017-Nov-30 20:00N 51°42' E 003°14'715.1
2017-Nov-30 19:31N 51°35' E 003°11'917.9
2017-Nov-30 19:01N 51°28' E 003°02'611.9
2017-Nov-30 18:31N 51°24' E 003°08'1019.6
2017-Nov-30 18:01N 51°25' E 003°24'815.0
2017-Nov-30 17:30N 51°26' E 003°36'4 8.1
2017-Nov-30 17:01N 51°25' E 003°42'714.3
2017-Nov-30 16:30N 51°21' E 003°52'815.3
2017-Nov-30 16:00N 51°26' E 004°01'612.9
2017-Nov-30 15:31N 51°23' E 004°10'510.5
2017-Nov-30 15:00N 51°20' E 004°16'3 5.0
2017-Nov-30 14:29N 51°17' E 004°16'0 0.0
2017-Nov-30 13:59N 51°17' E 004°16'0 0.0
2017-Nov-30 13:29N 51°17' E 004°16'0 0.0
2017-Nov-30 12:56N 51°17' E 004°16'0 0.0
2017-Nov-30 12:29N 51°17' E 004°16'0 0.0
2017-Nov-30 11:59N 51°17' E 004°16'0 0.0
2017-Nov-30 11:29N 51°17' E 004°16'0 0.0
2017-Nov-30 10:59N 51°17' E 004°16'0 0.0
2017-Nov-30 10:29N 51°17' E 004°16'0 0.0
2017-Nov-30 10:01N 51°17' E 004°16'0 0.0
2017-Nov-30 09:30N 51°17' E 004°16'0 0.0
2017-Nov-30 09:01N 51°17' E 004°16'0 0.0
2017-Nov-30 08:31N 51°17' E 004°16'0 0.0
2017-Nov-30 08:01N 51°17' E 004°16'0 0.0
2017-Nov-30 07:30N 51°17' E 004°16'0 0.0
2017-Nov-30 07:00N 51°17' E 004°16'0 0.0
2017-Nov-30 06:30N 51°17' E 004°16'0 0.0
2017-Nov-30 06:01N 51°17' E 004°16'0 0.0
2017-Nov-30 05:30N 51°17' E 004°16'0 0.0
2017-Nov-30 05:01N 51°17' E 004°16'0 0.0
2017-Nov-30 04:30N 51°17' E 004°16'0 0.0
2017-Nov-30 04:01N 51°17' E 004°16'0 0.0
2017-Nov-30 03:31N 51°17' E 004°16'0 0.0
2017-Nov-30 03:01N 51°17' E 004°16'0 0.0
2017-Nov-30 02:31N 51°17' E 004°16'0 0.0
2017-Nov-30 02:00N 51°17' E 004°16'0 0.0
2017-Nov-30 01:31N 51°17' E 004°16'0 0.0
2017-Nov-30 01:01N 51°17' E 004°16'0 0.0
2017-Nov-30 00:30N 51°17' E 004°16'0 0.0
2017-Nov-30 00:00N 51°17' E 004°16'0 0.0
2017-Nov-29 23:31N 51°17' E 004°16'0 0.0
2017-Nov-29 23:00N 51°17' E 004°16'0 0.0
2017-Nov-29 22:31N 51°17' E 004°16'0 0.0
2017-Nov-29 22:01N 51°17' E 004°16'0 0.0
2017-Nov-29 21:30N 51°17' E 004°16'0 0.0
2017-Nov-29 21:00N 51°17' E 004°16'0 0.0
2017-Nov-29 20:31N 51°17' E 004°16'1 1.4
2017-Nov-29 20:01N 51°18' E 004°16'2 3.7
2017-Nov-29 19:31N 51°20' E 004°16'4 7.3
2017-Nov-29 19:00N 51°23' E 004°13'612.8
2017-Nov-29 18:31N 51°23' E 004°03'4 7.1
2017-Nov-29 18:01N 51°23' E 003°57'816.1
2017-Nov-29 17:30N 51°22' E 003°44'713.6
2017-Nov-29 17:00N 51°25' E 003°34'714.4
2017-Nov-29 16:30N 51°24' E 003°23'816.0
2017-Nov-29 16:01N 51°24' E 003°10'611.8
2017-Nov-29 15:30N 51°25' E 003°01'713.4
2017-Nov-29 15:00N 51°25' E 002°50'611.9
2017-Nov-29 14:30N 51°23' E 002°41'713.9
2017-Nov-29 14:00N 51°22' E 002°30'5 9.4
2017-Nov-29 13:30N 51°20' E 002°23'510.0
2017-Nov-29 13:00N 51°17' E 002°17'510.4
2017-Nov-29 12:30N 51°14' E 002°10'510.4
2017-Nov-29 12:00N 51°12' E 002°02'611.1
2017-Nov-29 11:31N 51°10' E 001°55'714.4
2017-Nov-29 11:00N 51°05' E 001°46'714.7
2017-Nov-29 10:30N 51°00' E 001°37'611.3
2017-Nov-29 10:00N 50°57' E 001°30'713.2
2017-Nov-29 09:30N 50°50' E 001°26'813.6
2017-Nov-29 08:53N 50°42' E 001°22'513.7
2017-Nov-29 08:30N 50°39' E 001°17'  

Dump ship's entire track history